createdAt,value
2022-12-08T00:01:10.751Z,10.00
2022-12-08T00:03:37.955Z,10.13
2022-12-08T00:06:24.875Z,9.90
2022-12-08T00:09:10.149Z,10.30
2022-12-08T00:11:37.340Z,10.73
2022-12-08T00:14:04.589Z,10.98
2022-12-08T00:16:31.652Z,10.43
2022-12-08T00:18:58.410Z,10.88
2022-12-08T00:21:25.124Z,10.50
2022-12-08T00:23:55.264Z,10.10
2022-12-08T00:26:22.537Z,11.15
2022-12-08T00:28:49.945Z,10.40
2022-12-08T00:31:17.287Z,10.70
2022-12-08T00:33:44.277Z,10.48
2022-12-08T00:36:13.509Z,10.32
2022-12-08T00:38:40.951Z,9.95
2022-12-08T00:41:12.493Z,10.00
2022-12-08T00:43:40.289Z,10.88
2022-12-08T00:46:07.029Z,10.13
2022-12-08T00:48:33.894Z,10.30
2022-12-08T00:51:00.814Z,10.73
2022-12-08T00:53:27.673Z,10.88
2022-12-08T00:55:54.831Z,11.23
2022-12-08T00:58:21.631Z,10.90
2022-12-08T01:00:48.400Z,10.07
2022-12-08T01:03:15.262Z,11.82
2022-12-08T01:05:42.575Z,10.15
2022-12-08T01:08:09.490Z,10.73
2022-12-08T01:10:37.133Z,10.18
2022-12-08T01:13:04.395Z,9.98
2022-12-08T01:15:31.366Z,10.07
2022-12-08T01:17:58.357Z,9.70
2022-12-08T01:20:25.618Z,9.80
2022-12-08T01:22:52.377Z,10.15
2022-12-08T01:25:19.275Z,9.50
2022-12-08T01:27:46.730Z,10.05
2022-12-08T01:30:14.215Z,9.32
2022-12-08T01:32:41.041Z,9.32
2022-12-08T01:35:08.264Z,8.73
2022-12-08T01:37:35.093Z,8.88
2022-12-08T01:40:02.413Z,8.75
2022-12-08T01:42:30.972Z,7.93
2022-12-08T01:45:03.228Z,8.45
2022-12-08T01:47:44.339Z,8.30
2022-12-08T01:50:14.034Z,8.40
2022-12-08T01:52:43.501Z,8.15
2022-12-08T01:55:21.688Z,8.68
2022-12-08T01:57:51.474Z,7.80
2022-12-08T02:00:20.243Z,7.30
2022-12-08T02:03:13.717Z,8.13
2022-12-08T02:05:42.124Z,7.60
2022-12-08T02:08:10.879Z,8.00
2022-12-08T02:10:40.460Z,8.10
2022-12-08T02:13:10.580Z,7.53
2022-12-08T02:16:05.495Z,8.48
2022-12-08T02:19:28.648Z,7.90
2022-12-08T02:22:06.267Z,8.40
2022-12-08T02:24:39.322Z,9.35
2022-12-08T02:27:40.554Z,9.23
2022-12-08T02:30:47.132Z,9.32
2022-12-08T02:33:52.903Z,8.70
2022-12-08T02:36:37.796Z,9.05
2022-12-08T02:39:25.502Z,9.13
2022-12-08T02:42:25.067Z,9.25
2022-12-08T02:45:03.808Z,8.85
2022-12-08T02:47:30.688Z,9.02
2022-12-08T02:49:58.217Z,8.65
2022-12-08T02:52:45.558Z,8.93
2022-12-08T02:55:44.679Z,10.52
2022-12-08T02:58:24.353Z,9.50
2022-12-08T03:01:37.667Z,10.27
2022-12-08T03:04:23.716Z,10.00
2022-12-08T03:07:07.107Z,9.95
2022-12-08T03:09:41.097Z,10.75
2022-12-08T03:12:18.303Z,10.88
2022-12-08T03:14:48.736Z,10.55
2022-12-08T03:17:16.150Z,10.23
2022-12-08T03:19:44.141Z,9.57
2022-12-08T03:22:12.081Z,8.93
2022-12-08T03:24:41.482Z,9.00
2022-12-08T03:27:22.966Z,9.50
2022-12-08T03:29:51.716Z,8.77
2022-12-08T03:32:37.791Z,8.80
2022-12-08T03:35:08.721Z,8.32
2022-12-08T03:37:37.224Z,9.35
2022-12-08T03:40:06.127Z,9.38
2022-12-08T03:42:33.061Z,8.77
2022-12-08T03:45:00.085Z,8.50
2022-12-08T03:47:27.122Z,8.60
2022-12-08T03:49:53.878Z,9.35
2022-12-08T03:52:20.692Z,8.98
2022-12-08T03:54:47.424Z,8.68
2022-12-08T03:57:14.592Z,8.90
2022-12-08T03:59:41.379Z,8.52
2022-12-08T04:02:08.332Z,9.18
2022-12-08T04:04:35.426Z,8.60
2022-12-08T04:07:02.233Z,8.85
2022-12-08T04:09:29.770Z,8.30
2022-12-08T04:11:56.785Z,9.18
2022-12-08T04:14:23.726Z,8.80
2022-12-08T04:16:50.600Z,8.90
2022-12-08T04:19:17.433Z,9.50
2022-12-08T04:21:44.172Z,9.27
2022-12-08T04:24:11.041Z,9.00
2022-12-08T04:26:37.759Z,10.07
2022-12-08T04:29:04.939Z,9.40
2022-12-08T04:31:31.647Z,10.20
2022-12-08T04:33:58.504Z,9.52
2022-12-08T04:36:25.187Z,9.63
2022-12-08T04:38:51.862Z,9.82
2022-12-08T04:41:18.727Z,9.40
2022-12-08T04:43:45.696Z,9.68
2022-12-08T04:46:12.532Z,10.20
2022-12-08T04:48:39.901Z,10.23
2022-12-08T04:51:06.828Z,9.93
2022-12-08T04:53:33.985Z,9.68
2022-12-08T04:56:00.817Z,10.25
2022-12-08T04:58:27.652Z,10.27
2022-12-08T05:00:55.460Z,11.45
2022-12-08T05:03:28.290Z,11.15
2022-12-08T05:05:55.980Z,12.90
2022-12-08T05:08:22.703Z,11.43
2022-12-08T05:10:49.508Z,12.20
2022-12-08T05:13:16.312Z,11.80
2022-12-08T05:15:43.080Z,12.48
2022-12-08T05:18:10.147Z,12.18
2022-12-08T05:20:37.378Z,12.45
2022-12-08T05:23:04.082Z,12.60
2022-12-08T05:25:30.854Z,12.48
2022-12-08T05:28:17.746Z,12.43
2022-12-08T05:30:44.451Z,13.55
2022-12-08T05:33:11.481Z,13.43
2022-12-08T05:35:38.329Z,14.82
2022-12-08T05:38:06.275Z,15.65
2022-12-08T05:40:33.120Z,13.32
2022-12-08T05:42:59.835Z,12.88
2022-12-08T05:45:26.960Z,12.95
2022-12-08T05:47:54.033Z,13.15
2022-12-08T05:50:20.955Z,13.38
2022-12-08T05:52:47.942Z,12.32
2022-12-08T05:55:15.460Z,12.25
2022-12-08T05:57:42.131Z,12.57
2022-12-08T06:00:09.705Z,12.32
2022-12-08T06:02:37.024Z,11.90
2022-12-08T06:05:04.284Z,12.10
2022-12-08T06:07:31.341Z,11.77
2022-12-08T06:09:58.050Z,12.32
2022-12-08T06:12:24.829Z,12.73
2022-12-08T06:14:51.668Z,12.10
2022-12-08T06:17:18.815Z,11.88
2022-12-08T06:19:45.588Z,11.93
2022-12-08T06:22:12.462Z,13.73
2022-12-08T06:24:39.767Z,13.70
2022-12-08T06:27:06.810Z,13.65
2022-12-08T06:29:33.668Z,14.77
2022-12-08T06:32:01.580Z,14.38
2022-12-08T06:34:28.562Z,14.13
2022-12-08T06:36:55.356Z,12.82
2022-12-08T06:39:22.903Z,12.88
2022-12-08T06:42:08.411Z,13.23
2022-12-08T06:44:35.196Z,13.85
2022-12-08T06:47:02.071Z,14.20
2022-12-08T06:49:29.153Z,14.25
2022-12-08T06:51:56.257Z,13.63
2022-12-08T06:54:22.948Z,12.13
2022-12-08T06:56:49.615Z,12.27
2022-12-08T06:59:19.611Z,12.35
2022-12-08T07:01:47.576Z,11.75
2022-12-08T07:04:14.539Z,11.38
2022-12-08T07:06:41.201Z,11.57
2022-12-08T07:09:07.964Z,10.85
2022-12-08T07:11:35.103Z,10.70
2022-12-08T07:14:02.213Z,10.80
2022-12-08T07:16:29.026Z,10.27
2022-12-08T07:18:56.018Z,9.45
2022-12-08T07:21:23.081Z,9.63
2022-12-08T07:23:55.996Z,9.88
2022-12-08T07:26:24.928Z,9.65
2022-12-08T07:28:51.824Z,9.35
2022-12-08T07:31:24.410Z,9.70
2022-12-08T07:33:52.485Z,10.25
2022-12-08T07:36:19.987Z,11.88
2022-12-08T07:38:47.020Z,11.82
2022-12-08T07:41:19.073Z,12.40
2022-12-08T07:43:46.072Z,11.25
2022-12-08T07:46:14.731Z,10.60
2022-12-08T07:48:42.096Z,10.65
2022-12-08T07:51:10.227Z,10.30
2022-12-08T07:53:42.561Z,10.60
2022-12-08T07:56:10.987Z,9.70
2022-12-08T07:58:38.238Z,9.52
2022-12-08T08:01:05.527Z,9.25
2022-12-08T08:03:33.359Z,9.35
2022-12-08T08:06:04.623Z,9.30
2022-12-08T08:08:32.105Z,9.48
2022-12-08T08:10:59.572Z,9.57
2022-12-08T08:13:26.551Z,8.80
2022-12-08T08:15:53.768Z,9.23
2022-12-08T08:18:20.667Z,8.82
2022-12-08T08:20:48.708Z,9.20
2022-12-08T08:23:15.413Z,9.32
2022-12-08T08:25:42.789Z,9.55
2022-12-08T08:28:09.601Z,9.98
2022-12-08T08:30:36.527Z,9.32
2022-12-08T08:33:03.698Z,10.48
2022-12-08T08:35:31.002Z,10.90
2022-12-08T08:37:57.929Z,10.05
2022-12-08T08:40:25.156Z,10.75
2022-12-08T08:42:52.615Z,10.43
2022-12-08T08:45:19.519Z,11.05
2022-12-08T08:47:46.505Z,12.30
2022-12-08T08:50:13.255Z,10.80
2022-12-08T08:52:40.419Z,11.25
2022-12-08T08:55:07.563Z,10.57
2022-12-08T08:57:34.731Z,11.50
2022-12-08T09:00:01.495Z,11.88
2022-12-08T09:02:28.501Z,12.40
2022-12-08T09:04:56.169Z,12.30
2022-12-08T09:07:23.158Z,11.68
2022-12-08T09:09:50.062Z,12.10
2022-12-08T09:12:16.878Z,11.80
2022-12-08T09:14:43.713Z,11.43
2022-12-08T09:17:11.015Z,10.98
2022-12-08T09:19:38.259Z,11.23
2022-12-08T09:22:05.762Z,10.10
2022-12-08T09:24:32.482Z,11.00
2022-12-08T09:26:59.771Z,11.40
2022-12-08T09:29:31.074Z,10.88
2022-12-08T09:34:28.077Z,9.10
2022-12-08T09:36:54.995Z,9.65
2022-12-08T09:39:21.824Z,9.95
2022-12-08T09:41:57.435Z,9.63
2022-12-08T09:44:44.536Z,9.20
2022-12-08T09:47:36.227Z,9.70
2022-12-08T09:50:20.167Z,8.93
2022-12-08T09:53:13.065Z,9.70
2022-12-08T09:56:01.418Z,9.38
2022-12-08T09:58:36.543Z,9.00
2022-12-08T10:01:03.558Z,9.27
2022-12-08T10:03:31.277Z,8.43
2022-12-08T10:06:08.543Z,8.80
2022-12-08T10:09:32.160Z,9.35
2022-12-08T10:12:11.279Z,8.27
2022-12-08T10:14:45.033Z,9.02
2022-12-08T10:17:20.841Z,8.40
2022-12-08T10:19:48.778Z,8.02
2022-12-08T10:22:24.416Z,9.13
2022-12-08T10:25:44.340Z,8.60
2022-12-08T10:28:12.313Z,8.57
2022-12-08T10:30:39.657Z,8.73
2022-12-08T10:33:13.342Z,8.02
2022-12-08T10:35:45.771Z,8.00
2022-12-08T10:38:33.253Z,8.40
2022-12-08T10:41:18.391Z,9.73
2022-12-08T10:43:50.485Z,8.20
2022-12-08T10:46:22.818Z,8.30
2022-12-08T10:48:52.621Z,7.95
2022-12-08T10:51:26.314Z,8.35
2022-12-08T10:53:53.198Z,7.22
2022-12-08T10:56:19.965Z,8.18
2022-12-08T10:58:48.559Z,9.05
2022-12-08T11:01:25.839Z,8.77
2022-12-08T11:04:04.440Z,8.02
2022-12-08T11:06:35.073Z,8.10
2022-12-08T11:09:03.404Z,8.05
2022-12-08T11:11:48.477Z,8.00
2022-12-08T11:14:30.172Z,8.40
2022-12-08T11:17:06.932Z,8.40
2022-12-08T11:19:38.287Z,8.50
2022-12-08T11:22:42.581Z,8.48
2022-12-08T11:25:18.799Z,8.53
2022-12-08T11:27:47.841Z,8.65
2022-12-08T11:30:24.052Z,8.68
2022-12-08T11:32:55.993Z,8.13
2022-12-08T11:35:40.925Z,9.15
2022-12-08T11:38:21.683Z,8.73
2022-12-08T11:40:52.942Z,8.73
2022-12-08T11:43:35.023Z,9.23
2022-12-08T11:46:05.480Z,8.38
2022-12-08T11:48:47.730Z,8.93
2022-12-08T11:51:38.616Z,8.43
2022-12-08T11:54:28.746Z,8.40
2022-12-08T11:57:01.350Z,7.75
2022-12-08T11:59:42.068Z,8.80
2022-12-08T12:02:14.739Z,9.05
2022-12-08T12:04:47.440Z,9.05
2022-12-08T12:07:59.566Z,8.40
2022-12-08T12:10:51.971Z,8.07
2022-12-08T12:13:51.633Z,8.35
2022-12-08T12:16:48.447Z,7.65
2022-12-08T12:19:18.180Z,8.07
2022-12-08T12:21:49.161Z,8.73
2022-12-08T12:24:26.047Z,9.40
2022-12-08T12:26:59.262Z,9.88
2022-12-08T12:29:31.831Z,10.05
2022-12-08T12:32:01.706Z,9.38
2022-12-08T12:34:36.044Z,9.50
2022-12-08T12:37:15.419Z,10.75
2022-12-08T12:40:21.792Z,9.73
2022-12-08T12:43:36.468Z,10.60
2022-12-08T12:46:59.158Z,10.20
2022-12-08T12:50:08.647Z,10.32
2022-12-08T12:52:37.491Z,11.52
2022-12-08T12:55:46.261Z,11.20
2022-12-08T12:58:22.542Z,10.88
2022-12-08T13:00:49.307Z,11.75
2022-12-08T13:03:17.435Z,11.73
2022-12-08T13:05:53.362Z,10.85
2022-12-08T13:08:23.445Z,8.75
2022-12-08T13:11:00.536Z,8.70
2022-12-08T13:13:28.247Z,7.90
2022-12-08T13:15:57.128Z,8.07
2022-12-08T13:18:47.013Z,8.35
2022-12-08T13:21:16.656Z,8.00
2022-12-08T13:23:47.215Z,7.65
2022-12-08T13:26:27.240Z,8.02
2022-12-08T13:29:24.006Z,8.52
2022-12-08T13:32:03.720Z,9.27
2022-12-08T13:34:51.828Z,9.35
2022-12-08T13:37:52.347Z,10.27
2022-12-08T13:40:25.012Z,8.05
2022-12-08T13:43:19.970Z,8.80
2022-12-08T13:46:52.501Z,9.70
2022-12-08T13:55:35.524Z,8.15
2022-12-08T13:57:32.921Z,7.45
2022-12-08T14:00:02.981Z,7.20
2022-12-08T14:02:47.806Z,7.03
2022-12-08T14:05:18.988Z,8.52
2022-12-08T14:08:36.276Z,7.18
2022-12-08T14:11:06.725Z,7.50
2022-12-08T14:13:34.573Z,7.13
2022-12-08T14:16:02.628Z,6.68
2022-12-08T14:18:31.740Z,7.07
2022-12-08T14:21:22.395Z,6.53
2022-12-08T14:23:49.469Z,5.82
2022-12-08T14:26:16.654Z,6.57
2022-12-08T14:28:45.194Z,6.95
2022-12-08T14:31:15.020Z,7.03
2022-12-08T14:33:42.725Z,6.35
2022-12-08T14:36:10.127Z,6.45
2022-12-08T14:38:37.344Z,6.97
2022-12-08T14:41:07.026Z,7.00
2022-12-08T14:43:34.038Z,7.50
2022-12-08T14:46:05.317Z,6.97
2022-12-08T14:48:45.330Z,7.47
2022-12-08T14:51:32.718Z,7.50
2022-12-08T14:54:07.141Z,6.90
2022-12-08T14:56:38.829Z,7.63
2022-12-08T14:59:12.439Z,8.25
2022-12-08T15:01:39.672Z,7.07
2022-12-08T15:04:20.030Z,7.90
2022-12-08T15:06:58.533Z,6.85
2022-12-08T15:09:32.781Z,6.65
2022-12-08T15:12:07.372Z,7.63
2022-12-08T15:17:03.255Z,9.73
2022-12-08T15:19:32.696Z,12.07
2022-12-08T15:22:18.917Z,10.98
2022-12-08T15:24:45.618Z,10.85
2022-12-08T15:27:18.759Z,12.10
2022-12-08T15:29:47.083Z,9.43
2022-12-08T15:32:17.474Z,10.20
2022-12-08T15:34:44.260Z,8.50
2022-12-08T15:37:22.569Z,7.50
2022-12-08T15:39:49.902Z,6.97
2022-12-08T15:42:16.792Z,9.23
2022-12-08T15:44:43.960Z,8.15
2022-12-08T15:47:16.632Z,8.40
2022-12-08T15:49:43.525Z,7.63
2022-12-08T15:52:20.691Z,7.90
2022-12-08T15:54:47.788Z,7.18
2022-12-08T15:58:17.033Z,7.13
2022-12-08T16:00:51.786Z,7.13
2022-12-08T16:04:14.297Z,6.70
2022-12-08T16:09:39.793Z,7.32
2022-12-08T16:13:13.318Z,6.55
2022-12-08T16:18:24.134Z,5.75
2022-12-08T16:21:12.485Z,6.82
2022-12-08T16:23:45.417Z,7.07
2022-12-08T16:27:06.875Z,6.70
2022-12-08T16:29:05.872Z,6.07
2022-12-08T16:31:33.164Z,6.60
2022-12-08T16:34:00.498Z,7.43
2022-12-08T16:36:27.287Z,6.60
2022-12-08T16:38:54.243Z,5.65
2022-12-08T16:41:39.744Z,5.22
2022-12-08T16:44:06.876Z,5.70
2022-12-08T16:46:33.911Z,5.68
2022-12-08T16:49:00.820Z,6.80
2022-12-08T16:51:27.832Z,7.15
2022-12-08T16:53:58.680Z,5.45
2022-12-08T16:56:32.213Z,6.25
2022-12-08T16:59:00.467Z,5.78
2022-12-08T17:01:27.799Z,6.22
2022-12-08T17:04:29.866Z,5.43
2022-12-08T17:06:42.303Z,5.80
2022-12-08T17:09:09.454Z,6.53
2022-12-08T17:11:43.081Z,6.65
2022-12-08T17:14:13.588Z,6.40
2022-12-08T17:16:41.445Z,6.15
2022-12-08T17:19:09.122Z,5.88
2022-12-08T17:21:36.074Z,6.82
2022-12-08T17:24:03.041Z,6.70
2022-12-08T17:26:30.784Z,6.97
2022-12-08T17:29:01.540Z,7.03
2022-12-08T17:31:30.807Z,6.78
2022-12-08T17:34:00.108Z,6.03
2022-12-08T17:36:27.346Z,5.80
2022-12-08T17:38:54.762Z,5.53
2022-12-08T17:41:21.599Z,6.10
2022-12-08T17:43:49.161Z,6.80
2022-12-08T17:46:20.232Z,6.28
2022-12-08T17:48:47.270Z,6.60
2022-12-08T17:51:15.443Z,6.35
2022-12-08T17:53:46.190Z,5.65
2022-12-08T17:56:19.893Z,9.90
2022-12-08T17:58:52.627Z,9.20
2022-12-08T18:01:21.231Z,6.28
2022-12-08T18:03:47.953Z,5.68
2022-12-08T18:06:15.001Z,6.30
2022-12-08T18:08:41.887Z,6.30
2022-12-08T18:11:14.934Z,6.03
2022-12-08T18:13:41.626Z,6.50
2022-12-08T18:16:08.870Z,6.18
2022-12-08T18:18:35.750Z,6.40
2022-12-08T18:21:02.524Z,6.60
2022-12-08T18:23:29.506Z,7.15
2022-12-08T18:25:57.028Z,7.70
2022-12-08T18:28:24.261Z,7.90
2022-12-08T18:30:51.676Z,7.82
2022-12-08T18:33:18.600Z,8.85
2022-12-08T18:35:45.749Z,8.73
2022-12-08T18:38:12.567Z,9.43
2022-12-08T18:40:39.721Z,9.35
2022-12-08T18:43:06.608Z,9.43
2022-12-08T18:45:34.483Z,10.20
2022-12-08T18:48:01.660Z,10.23
2022-12-08T18:50:28.374Z,10.45
2022-12-08T18:52:55.209Z,10.23
2022-12-08T18:55:21.880Z,9.85
2022-12-08T18:57:48.673Z,10.00
2022-12-08T19:00:18.656Z,11.07
2022-12-08T19:02:46.010Z,9.82
2022-12-08T19:05:13.790Z,10.80
2022-12-08T19:07:42.764Z,10.88
2022-12-08T19:10:10.649Z,10.30
2022-12-08T19:12:37.913Z,10.35
2022-12-08T19:15:06.195Z,11.15
2022-12-08T19:17:33.323Z,10.20
2022-12-08T19:20:00.183Z,11.48
2022-12-08T19:22:27.039Z,10.90
2022-12-08T19:24:54.085Z,10.70
2022-12-08T19:27:21.116Z,10.13
2022-12-08T19:29:48.178Z,10.27
2022-12-08T19:32:15.087Z,9.32
2022-12-08T19:34:42.299Z,9.23
2022-12-08T19:37:12.777Z,8.98
2022-12-08T19:39:59.835Z,9.23
2022-12-08T19:42:45.965Z,8.90
2022-12-08T19:45:21.692Z,8.70
2022-12-08T19:47:48.930Z,9.52
2022-12-08T19:50:35.344Z,8.65
2022-12-08T19:53:03.871Z,9.77
2022-12-08T19:55:30.847Z,10.93
2022-12-08T19:57:57.778Z,12.93
2022-12-08T20:00:24.985Z,14.43
2022-12-08T20:02:52.186Z,16.35
2022-12-08T20:05:19.993Z,15.52
2022-12-08T20:07:47.376Z,15.35
2022-12-08T20:10:19.922Z,13.13
2022-12-08T20:12:46.793Z,12.98
2022-12-08T20:15:15.029Z,11.38
2022-12-08T20:17:42.801Z,9.55
2022-12-08T20:20:10.627Z,9.95
2022-12-08T20:22:37.619Z,9.50
2022-12-08T20:25:05.476Z,9.90
2022-12-08T20:27:34.231Z,9.57
2022-12-08T20:30:01.306Z,10.98
2022-12-08T20:32:28.031Z,11.77
2022-12-08T20:34:54.832Z,10.55
2022-12-08T20:37:21.661Z,10.48
2022-12-08T20:39:48.957Z,10.85
2022-12-08T20:42:15.694Z,11.23
2022-12-08T20:44:44.735Z,10.20
2022-12-08T20:47:12.862Z,11.02
2022-12-08T20:49:40.641Z,11.90
2022-12-08T20:52:08.303Z,10.65
2022-12-08T20:54:35.989Z,11.35
2022-12-08T20:57:03.031Z,11.98
2022-12-08T20:59:30.189Z,12.48
2022-12-08T21:01:58.592Z,14.00
2022-12-08T21:04:25.776Z,13.98
2022-12-08T21:06:53.093Z,13.48
2022-12-08T21:09:20.177Z,12.63
2022-12-08T21:11:46.968Z,12.93
2022-12-08T21:14:14.628Z,12.70
2022-12-08T21:16:41.470Z,11.93
2022-12-08T21:19:08.721Z,11.75
2022-12-08T21:21:35.527Z,10.50
2022-12-08T21:24:03.487Z,10.52
2022-12-08T21:26:30.927Z,10.32
2022-12-08T21:28:59.080Z,10.40
2022-12-08T21:31:27.143Z,10.27
2022-12-08T21:33:55.401Z,11.38
2022-12-08T21:36:23.042Z,13.07
2022-12-08T21:38:50.975Z,13.00
2022-12-08T21:41:40.563Z,12.95
2022-12-08T21:44:10.403Z,11.40
2022-12-08T21:46:38.026Z,11.15
2022-12-08T21:49:05.167Z,12.07
2022-12-08T21:51:34.221Z,10.35
2022-12-08T21:54:01.424Z,9.98
2022-12-08T21:56:28.278Z,9.57
2022-12-08T21:58:56.258Z,9.57
2022-12-08T22:01:23.215Z,8.82
2022-12-08T22:03:50.320Z,9.52
2022-12-08T22:06:17.739Z,8.85
2022-12-08T22:08:44.793Z,9.48
2022-12-08T22:11:12.449Z,9.65
2022-12-08T22:13:41.658Z,9.30
2022-12-08T22:16:12.738Z,10.93
2022-12-08T22:18:39.712Z,10.13
2022-12-08T22:21:15.504Z,10.80
2022-12-08T22:23:42.910Z,10.00
2022-12-08T22:26:11.016Z,10.52
2022-12-08T22:28:40.267Z,11.38
2022-12-08T22:31:16.671Z,10.07
2022-12-08T22:33:43.972Z,9.05
2022-12-08T22:36:18.993Z,8.60
2022-12-08T22:38:47.066Z,8.30
2022-12-08T22:41:14.044Z,9.02
2022-12-08T22:43:41.538Z,9.25
2022-12-08T22:46:15.675Z,9.10
2022-12-08T22:51:09.786Z,8.50
2022-12-08T22:53:37.459Z,8.38
2022-12-08T22:56:06.037Z,8.27
2022-12-08T22:58:33.811Z,9.10
2022-12-08T23:01:00.977Z,8.00
2022-12-08T23:03:28.191Z,8.40
2022-12-08T23:05:55.406Z,8.60
2022-12-08T23:08:22.693Z,8.57
2022-12-08T23:10:52.374Z,8.27
2022-12-08T23:13:19.332Z,8.32
2022-12-08T23:15:46.931Z,8.45
2022-12-08T23:18:15.216Z,8.57
2022-12-08T23:20:42.283Z,7.85
2022-12-08T23:23:09.483Z,8.18
2022-12-08T23:25:43.072Z,7.75
2022-12-08T23:28:11.454Z,7.97
2022-12-08T23:30:42.006Z,7.85
2022-12-08T23:33:09.425Z,6.78
2022-12-08T23:35:36.579Z,7.72
2022-12-08T23:38:03.901Z,7.45
2022-12-08T23:40:30.898Z,8.25
2022-12-08T23:42:58.213Z,8.68
2022-12-08T23:45:25.416Z,8.20
2022-12-08T23:47:52.496Z,8.93
2022-12-08T23:50:19.295Z,8.55
2022-12-08T23:52:46.362Z,9.20
2022-12-08T23:55:13.565Z,9.05
2022-12-08T23:57:41.026Z,8.70
